Time;durP1;ratioP1;P1;durP2;ratioP2;P2;SDS_P1;SDS_P2;PMS_P1;PMS_P2;Temp;Humidity;BMP_temperature;BMP_pressure;BME280_temperature;BME280_humidity;BME280_pressure;Samples;Min_cycle;Max_cycle;Signal;HPM_P1;HPM_P2
2022/10/20 00:02:32;;;;;;;27.82;17.45;;;;;;;4.00;78.43;101460.14;2173651;81;31026;-67
2022/10/20 00:05:34;;;;;;;32.03;19.48;;;;;;;3.97;78.55;101458.39;2151635;82;33365;-67
2022/10/20 00:08:36;;;;;;;26.52;16.37;;;;;;;3.94;78.47;101463.70;2173750;81;29368;-61
2022/10/20 00:11:38;;;;;;;28.65;17.48;;;;;;;3.90;78.49;101469.44;2151522;82;27610;-67
2022/10/20 00:14:40;;;;;;;26.15;18.40;;;;;;;3.88;78.45;101466.36;2173649;81;28753;-68
2022/10/20 00:17:43;;;;;;;30.40;17.65;;;;;;;3.86;78.49;101465.48;2151692;82;31026;-68
2022/10/20 00:20:45;;;;;;;29.87;17.05;;;;;;;3.84;78.59;101465.92;2173920;81;32919;-66
2022/10/20 00:23:48;;;;;;;30.72;17.85;;;;;;;3.83;78.63;101465.05;2151316;82;30086;-66
2022/10/20 00:26:50;;;;;;;29.10;18.45;;;;;;;3.83;78.74;101467.70;2151499;82;27696;-60
2022/10/20 00:29:52;;;;;;;28.20;18.57;;;;;;;3.83;78.84;101452.23;2174120;81;28854;-67
2022/10/20 00:32:53;;;;;;;30.75;16.45;;;;;;;3.83;78.77;101450.91;2173708;81;31862;-67
2022/10/20 00:36:04;;;;;;;27.37;16.00;;;;;;;3.82;78.63;101455.77;2174201;81;33918;-67
2022/10/20 00:39:06;;;;;;;27.32;15.68;;;;;;;3.79;78.59;101457.56;2174161;81;29354;-67
2022/10/20 00:42:12;;;;;;;29.00;17.17;;;;;;;3.74;78.52;101451.38;2173831;81;27687;-61
2022/10/20 00:45:18;;;;;;;28.23;16.87;;;;;;;3.72;78.74;101449.17;2173806;81;28707;-68
2022/10/20 00:48:24;;;;;;;26.25;16.73;;;;;;;3.69;78.63;101444.34;2173767;81;31002;-67
2022/10/20 00:51:29;;;;;;;26.95;17.57;;;;;;;3.65;78.62;101443.44;2151325;82;34219;-64
2022/10/20 00:54:31;;;;;;;26.70;16.75;;;;;;;3.63;78.81;101447.89;2145404;82;29929;-67
2022/10/20 00:57:33;;;;;;;29.12;17.95;;;;;;;3.58;78.74;101441.25;2106408;84;27693;-67
2022/10/20 01:00:38;;;;;;;28.47;16.55;;;;;;;3.55;78.71;101443.94;2144545;82;28692;-65
2022/10/20 01:03:51;;;;;;;28.27;17.32;;;;;;;3.52;79.04;101440.38;2144741;82;32363;-60
2022/10/20 01:06:52;;;;;;;24.57;15.38;;;;;;;3.51;79.30;101440.84;2144317;83;32801;-60
2022/10/20 01:09:55;;;;;;;24.40;16.45;;;;;;;3.49;79.14;101439.50;2144312;83;30136;-67
2022/10/20 01:13:07;;;;;;;29.20;17.27;;;;;;;3.46;78.92;101434.66;2145268;83;27680;-63
2022/10/20 01:16:30;;;;;;;28.80;16.45;;;;;;;3.42;78.77;101434.22;2144328;83;29379;-67
2022/10/20 01:20:20;;;;;;;32.73;17.40;;;;;;;3.36;78.86;101431.14;2144294;83;30834;-67
2022/10/20 01:23:49;;;;;;;26.50;17.20;;;;;;;3.33;79.25;101422.77;2147887;82;34165;-66
2022/10/20 01:27:16;;;;;;;29.63;18.23;;;;;;;3.30;79.53;101412.17;2174127;81;30451;-65
2022/10/20 01:30:21;;;;;;;30.30;17.10;;;;;;;3.32;79.92;101417.45;2134809;83;27647;-65
2022/10/20 01:33:34;;;;;;;27.77;18.35;;;;;;;3.34;80.10;101417.02;2151974;82;28653;-65
2022/10/20 01:36:52;;;;;;;31.93;19.75;;;;;;;3.36;80.17;101421.00;2150963;82;31982;-59
2022/10/20 01:40:17;;;;;;;37.42;19.50;;;;;;;3.36;80.07;101418.36;2150134;82;32915;-67
2022/10/20 01:43:22;;;;;;;30.33;18.63;;;;;;;3.34;79.97;101421.88;2151600;82;29375;-68
2022/10/20 01:46:24;;;;;;;34.15;20.20;;;;;;;3.33;79.96;101420.55;2151805;82;27652;-67
2022/10/20 01:49:26;;;;;;;34.27;19.98;;;;;;;3.31;80.06;101423.20;2159253;82;28645;-68
2022/10/20 01:52:28;;;;;;;42.00;21.50;;;;;;;3.31;80.09;101420.56;2128101;82;32255;-67
2022/10/20 01:55:31;;;;;;;37.08;20.23;;;;;;;3.32;80.31;101417.45;2188948;81;33999;-68
2022/10/20 01:59:02;;;;;;;38.48;21.87;;;;;;;3.33;80.65;101424.09;2192062;80;29983;-68
2022/10/20 02:02:18;;;;;;;34.53;19.70;;;;;;;3.36;80.60;101420.55;2192576;80;27673;-69
2022/10/20 02:05:49;;;;;;;31.77;19.27;;;;;;;3.37;80.64;101414.83;2159134;82;29042;-67
2022/10/20 02:08:59;;;;;;;34.98;19.92;;;;;;;3.37;80.59;101422.77;2151253;82;31498;-67
2022/10/20 02:12:08;;;;;;;33.53;19.98;;;;;;;3.35;80.57;101414.80;2159940;81;32790;-66
2022/10/20 02:15:12;;;;;;;36.35;19.42;;;;;;;3.34;80.55;101413.04;2159993;82;29686;-61
2022/10/20 02:18:18;;;;;;;32.48;18.55;;;;;;;3.33;80.49;101412.17;2136944;82;27727;-67
2022/10/20 02:21:20;;;;;;;34.65;19.02;;;;;;;3.32;80.37;101413.48;2136594;82;28754;-65
2022/10/20 02:24:26;;;;;;;32.08;17.90;;;;;;;3.30;80.36;101420.58;2131526;83;31475;-67
2022/10/20 02:27:34;;;;;;;36.10;19.85;;;;;;;3.26;80.21;101418.81;2184665;81;32970;-67
2022/10/20 02:30:37;;;;;;;38.58;20.62;;;;;;;3.23;80.22;101420.13;2184732;81;29332;-69
2022/10/20 02:33:40;;;;;;;43.40;21.17;;;;;;;3.18;80.16;101421.00;2184481;81;27624;-62
2022/10/20 02:36:43;;;;;;;40.67;19.20;;;;;;;3.14;80.21;101419.27;2184711;81;29127;-68
2022/10/20 02:39:44;;;;;;;41.13;20.90;;;;;;;3.12;79.99;101433.37;2184822;81;31398;-68
2022/10/20 02:42:46;;;;;;;33.98;18.98;;;;;;;3.08;80.13;101430.27;2184395;81;33894;-68
2022/10/20 02:45:48;;;;;;;33.63;18.65;;;;;;;3.06;80.13;101433.39;2184554;81;29762;-68
2022/10/20 02:48:49;;;;;;;32.40;17.98;;;;;;;3.02;80.04;101437.36;2179253;81;27703;-67
2022/10/20 02:51:51;;;;;;;33.85;17.85;;;;;;;2.98;79.81;101432.07;2115820;84;29136;-67
2022/10/20 02:54:53;;;;;;;30.95;17.62;;;;;;;2.92;79.71;101432.92;2155274;82;32304;-67
2022/10/20 02:57:54;;;;;;;34.80;18.37;;;;;;;2.88;79.71;101430.73;2180848;81;33362;-61
2022/10/20 03:00:56;;;;;;;28.83;16.52;;;;;;;2.85;79.65;101429.85;2180504;81;29558;-65
2022/10/20 03:03:58;;;;;;;27.85;16.73;;;;;;;2.79;79.55;101424.12;2181251;81;27713;-61
2022/10/20 03:07:00;;;;;;;26.93;15.25;;;;;;;2.73;79.49;101422.32;2180702;81;29962;-65
2022/10/20 03:10:04;;;;;;;30.10;16.65;;;;;;;2.70;79.50;101423.67;2180276;81;33175;-61
2022/10/20 03:13:05;;;;;;;27.70;16.82;;;;;;;2.66;79.54;101419.67;2157445;82;35161;-64
2022/10/20 03:16:08;;;;;;;28.52;17.05;;;;;;;2.62;79.51;101417.47;2152027;82;29758;-61
2022/10/20 03:19:09;;;;;;;29.52;16.52;;;;;;;2.58;79.55;101421.88;2183673;81;27634;-61
2022/10/20 03:22:11;;;;;;;27.27;16.32;;;;;;;2.55;79.43;101426.30;2183807;81;28403;-60
2022/10/20 03:25:15;;;;;;;33.05;15.95;;;;;;;2.49;79.31;101425.81;2180175;81;30994;-61
2022/10/20 03:28:16;;;;;;;30.95;16.17;;;;;;;2.43;79.25;101429.79;2115274;84;34293;-66
2022/10/20 03:31:18;;;;;;;27.40;16.32;;;;;;;2.37;79.21;101438.59;2153876;82;29375;-61
2022/10/20 03:34:20;;;;;;;30.27;17.37;;;;;;;2.33;79.35;101438.13;2176174;81;27679;-60
2022/10/20 03:37:21;;;;;;;34.48;19.73;;;;;;;2.32;79.44;101447.40;2115928;84;29085;-60
2022/10/20 03:40:22;;;;;;;43.08;23.75;;;;;;;2.27;79.34;101446.03;2154063;82;32225;-62
2022/10/20 03:43:24;;;;;;;43.58;25.05;;;;;;;2.24;79.30;101449.98;2176390;81;33032;-61
2022/10/20 03:46:26;;;;;;;41.10;23.83;;;;;;;2.19;79.38;101453.94;2176424;81;29726;-60
2022/10/20 03:49:27;;;;;;;47.27;25.15;;;;;;;2.16;79.33;101459.21;2182445;81;27687;-62
2022/10/20 03:52:29;;;;;;;38.60;23.05;;;;;;;2.13;79.42;101454.80;2184745;81;28503;-61
2022/10/20 03:55:31;;;;;;;44.10;24.63;;;;;;;2.11;79.43;101450.41;2189727;81;32346;-61
2022/10/20 03:58:33;;;;;;;42.43;24.60;;;;;;;2.09;79.47;101445.55;2159450;82;34369;-61
2022/10/20 04:01:35;;;;;;;37.48;24.10;;;;;;;2.06;79.45;101446.84;2160017;82;29466;-62
2022/10/20 04:04:36;;;;;;;36.17;22.37;;;;;;;2.04;79.50;101444.63;2160124;82;27708;-61
2022/10/20 04:07:38;;;;;;;33.25;20.48;;;;;;;2.03;79.52;101439.80;2137042;83;29070;-60
2022/10/20 04:10:39;;;;;;;32.75;18.98;;;;;;;2.02;79.58;101433.16;2136897;83;31035;-61
2022/10/20 04:13:41;;;;;;;32.58;19.55;;;;;;;1.99;79.59;101427.44;2159571;82;32989;-63
2022/10/20 04:16:43;;;;;;;34.85;19.67;;;;;;;1.96;79.46;101432.70;2121312;83;29175;-63
2022/10/20 04:19:45;;;;;;;30.32;19.37;;;;;;;1.92;79.44;101435.78;2160033;82;27714;-60
2022/10/20 04:22:46;;;;;;;31.62;19.73;;;;;;;1.90;79.42;101430.92;2159814;82;29071;-60
2022/10/20 04:25:48;;;;;;;34.80;19.62;;;;;;;1.87;79.44;101430.91;2117536;83;33199;-60
2022/10/20 04:28:50;;;;;;;38.40;23.35;;;;;;;1.85;79.41;101431.33;2184357;81;34191;-59
2022/10/20 04:31:51;;;;;;;37.67;19.32;;;;;;;1.82;79.42;101430.02;2155649;82;29766;-59
2022/10/20 04:34:53;;;;;;;40.20;19.57;;;;;;;1.77;79.39;101428.66;2184817;81;27595;-63
2022/10/20 04:37:54;;;;;;;36.20;21.45;;;;;;;1.74;79.46;101422.48;2185091;81;29035;-59
2022/10/20 04:40:57;;;;;;;38.38;22.60;;;;;;;1.72;79.45;101421.16;2184697;81;30984;-60
2022/10/20 04:43:58;;;;;;;41.37;23.55;;;;;;;1.70;79.49;101412.34;2184574;81;34078;-61
2022/10/20 04:47:00;;;;;;;40.03;23.80;;;;;;;1.67;79.46;101414.97;2184369;81;29754;-67
2022/10/20 04:50:04;;;;;;;47.73;26.95;;;;;;;1.64;79.57;101414.94;2177436;81;27735;-62
2022/10/20 04:53:08;;;;;;;39.23;24.80;;;;;;;1.64;79.62;101405.70;2115514;84;28701;-61
2022/10/20 04:56:17;;;;;;;42.15;24.10;;;;;;;1.62;79.54;101400.42;2115229;84;32251;-63
2022/10/20 04:59:17;;;;;;;42.00;24.98;;;;;;;1.59;79.60;101397.76;2146049;82;32989;-66
2022/10/20 05:02:19;;;;;;;38.40;22.87;;;;;;;1.58;79.61;101394.67;2146202;83;29497;-66
2022/10/20 05:05:20;;;;;;;49.38;28.23;;;;;;;1.57;79.78;101398.64;2146274;82;27783;-61
2022/10/20 05:08:22;;;;;;;43.68;25.50;;;;;;;1.55;79.75;101401.25;2146224;82;28671;-62
2022/10/20 05:11:25;;;;;;;40.92;22.90;;;;;;;1.53;79.77;101396.39;2146049;83;31298;-60
2022/10/20 05:14:27;;;;;;;36.05;20.27;;;;;;;1.54;79.81;101389.37;2146054;83;32962;-63
2022/10/20 05:17:29;;;;;;;34.10;18.52;;;;;;;1.53;79.72;101390.25;2145903;82;30509;-60
2022/10/20 05:20:31;;;;;;;31.27;18.35;;;;;;;1.51;79.68;101398.14;2146261;82;27686;-60
2022/10/20 05:23:33;;;;;;;32.95;17.92;;;;;;;1.48;79.73;101395.05;2161553;81;29040;-60
2022/10/20 05:26:36;;;;;;;28.92;16.82;;;;;;;1.47;80.01;101399.89;2175952;81;32210;-60
2022/10/20 05:29:37;;;;;;;28.95;17.70;;;;;;;1.48;80.21;101391.09;2176168;81;34225;-61
2022/10/20 05:32:39;;;;;;;27.50;17.32;;;;;;;1.52;80.59;101388.02;2176703;81;29867;-61
2022/10/20 05:35:40;;;;;;;34.43;21.10;;;;;;;1.53;80.53;101388.92;2176549;81;27625;-63
2022/10/20 05:38:42;;;;;;;35.30;22.30;;;;;;;1.57;80.80;101394.22;2175952;81;29908;-67
2022/10/20 05:41:43;;;;;;;31.15;19.00;;;;;;;1.60;80.85;101398.20;2176304;81;31403;-65
2022/10/20 05:44:45;;;;;;;28.32;18.70;;;;;;;1.63;80.87;101395.59;2175948;81;33427;-65
2022/10/20 05:47:47;;;;;;;30.48;19.12;;;;;;;1.67;80.97;101394.70;2176102;81;29752;-67
2022/10/20 05:50:48;;;;;;;33.85;19.55;;;;;;;1.74;81.12;101398.25;2163319;81;27712;-60
2022/10/20 05:53:51;;;;;;;30.30;20.65;;;;;;;1.79;81.29;101398.30;2168711;81;28931;-60
2022/10/20 05:56:53;;;;;;;38.70;19.92;;;;;;;1.85;81.38;101401.40;2151334;82;32107;-60
2022/10/20 05:59:54;;;;;;;30.62;20.57;;;;;;;1.91;81.54;101398.77;2151591;82;33359;-60
2022/10/20 06:02:57;;;;;;;32.80;19.82;;;;;;;1.97;81.67;101410.69;2151228;82;30623;-59
2022/10/20 06:06:01;;;;;;;35.65;19.65;;;;;;;2.04;81.83;101407.63;2173755;81;27650;-62
2022/10/20 06:09:06;;;;;;;35.23;20.30;;;;;;;2.11;81.94;101410.30;2151327;82;29256;-60
2022/10/20 06:12:08;;;;;;;29.67;18.75;;;;;;;2.20;82.10;101409.44;2173771;81;31306;-60
2022/10/20 06:15:10;;;;;;;33.08;19.07;;;;;;;2.28;82.26;101412.11;2174376;81;34486;-60
2022/10/20 06:18:12;;;;;;;33.73;20.17;;;;;;;2.37;82.38;101412.57;2174102;81;30619;-60
2022/10/20 06:21:18;;;;;;;35.98;22.62;;;;;;;2.47;82.48;101414.38;2151789;82;27709;-60
2022/10/20 06:24:20;;;;;;;31.48;18.62;;;;;;;2.55;82.51;101417.03;2166742;81;29865;-60
2022/10/20 06:27:22;;;;;;;28.75;18.52;;;;;;;2.64;82.63;101422.33;2163224;81;32503;-60
2022/10/20 06:30:23;;;;;;;32.03;18.35;;;;;;;2.74;82.61;101414.83;2163242;82;34288;-60
2022/10/20 06:33:27;;;;;;;35.20;17.57;;;;;;;2.85;82.76;101420.13;2163634;82;29676;-60
2022/10/20 06:36:29;;;;;;;30.88;20.02;;;;;;;2.93;82.74;101417.48;2163905;82;27663;-60
2022/10/20 06:39:30;;;;;;;25.95;17.23;;;;;;;3.03;82.75;101421.02;2163718;81;28692;-60
2022/10/20 06:42:35;;;;;;;31.97;17.62;;;;;;;3.12;82.75;101417.48;2163207;81;27696;-60
2022/10/20 06:45:39;;;;;;;29.95;17.75;;;;;;;3.23;82.83;101412.19;2163227;82;34230;-60
2022/10/20 06:48:42;;;;;;;31.30;16.10;;;;;;;3.33;82.82;101413.92;2163612;82;29715;-59
2022/10/20 06:51:43;;;;;;;29.72;17.90;;;;;;;3.46;82.89;101414.36;2163361;82;27667;-60
2022/10/20 06:54:45;;;;;;;25.20;17.00;;;;;;;3.61;82.90;101414.75;2164092;81;29050;-60
2022/10/20 06:57:47;;;;;;;23.55;16.12;;;;;;;3.74;82.80;101413.38;2163784;81;31419;-60
2022/10/20 07:01:03;;;;;;;32.70;19.50;;;;;;;3.89;83.01;101418.62;2163919;82;32954;-60
2022/10/20 07:04:15;;;;;;;25.95;15.68;;;;;;;4.08;83.14;101418.55;2163786;82;30453;-60
2022/10/20 07:07:17;;;;;;;23.15;16.20;;;;;;;4.27;82.94;101423.34;2163699;81;27708;-60
2022/10/20 07:10:18;;;;;;;28.42;15.43;;;;;;;4.47;82.92;101425.00;2163188;82;29927;-60
2022/10/20 07:13:20;;;;;;;22.20;13.70;;;;;;;4.68;82.99;101422.19;2163425;82;31402;-61
2022/10/20 07:16:24;;;;;;;29.15;16.00;;;;;;;4.89;82.85;101418.05;2163423;82;34086;-60
2022/10/20 07:19:26;;;;;;;20.65;13.40;;;;;;;5.14;82.85;101416.06;2163572;81;30455;-63
2022/10/20 07:22:27;;;;;;;22.58;12.85;;;;;;;5.41;82.87;101417.58;2163945;81;27712;-60
2022/10/20 07:25:29;;;;;;;21.23;13.25;;;;;;;5.67;82.68;101411.12;2173659;81;29103;-66
2022/10/20 07:28:32;;;;;;;21.48;13.28;;;;;;;5.96;82.91;101414.34;2151666;82;31033;-68
2022/10/20 07:31:43;;;;;;;22.50;12.45;;;;;;;6.19;82.24;101416.27;2161530;81;34128;-61
2022/10/20 07:34:45;;;;;;;22.42;13.38;;;;;;;6.41;81.82;101409.33;2212202;80;29246;-62
2022/10/20 07:37:47;;;;;;;19.82;13.53;;;;;;;6.64;81.51;101400.09;2212400;80;27611;-67
2022/10/20 07:40:49;;;;;;;20.25;11.90;;;;;;;6.83;80.66;101401.58;2212127;80;29952;-67
2022/10/20 07:43:51;;;;;;;16.30;11.60;;;;;;;7.00;80.75;101400.41;2212171;80;32372;-61
2022/10/20 07:46:52;;;;;;;22.55;13.30;;;;;;;7.24;80.51;101403.57;2212481;80;33353;-62
2022/10/20 07:49:54;;;;;;;19.82;13.53;;;;;;;7.41;80.43;101396.14;2198755;79;29187;-61
2022/10/20 07:52:56;;;;;;;22.02;13.68;;;;;;;7.68;80.82;101395.17;2168214;80;28096;-61
2022/10/20 07:55:58;;;;;;;18.60;11.55;;;;;;;8.01;80.62;101393.19;2137480;83;29300;-61
2022/10/20 07:59:00;;;;;;;22.75;11.93;;;;;;;8.26;79.61;101392.64;2137504;83;31030;-64
2022/10/20 08:02:02;;;;;;;19.27;11.10;;;;;;;8.38;78.86;101379.00;2137014;83;34161;-62
2022/10/20 08:05:04;;;;;;;18.32;11.08;;;;;;;8.60;79.11;101379.87;2137191;83;29357;-62
2022/10/20 08:08:06;;;;;;;20.80;12.23;;;;;;;8.77;78.71;101391.51;2137603;82;27692;-61
2022/10/20 08:11:09;;;;;;;16.93;10.80;;;;;;;8.89;78.32;101380.95;2137079;83;29882;-61
2022/10/20 08:14:10;;;;;;;27.98;14.15;;;;;;;9.09;78.57;101377.78;2137413;83;31448;-62
2022/10/20 08:17:12;;;;;;;16.10;11.00;;;;;;;9.15;77.34;101380.75;2137483;83;34104;-62
2022/10/20 08:20:14;;;;;;;20.32;11.20;;;;;;;9.18;77.42;101372.66;2137457;83;30458;-61
2022/10/20 08:23:16;;;;;;;17.40;10.48;;;;;;;9.17;75.88;101374.44;2140430;83;27793;-61
2022/10/20 08:26:21;;;;;;;18.25;11.22;;;;;;;9.14;76.78;101373.17;2144949;82;29620;-61
2022/10/20 08:29:23;;;;;;;20.08;11.57;;;;;;;9.22;76.92;101371.63;2119672;84;32176;-61
2022/10/20 08:32:25;;;;;;;22.35;12.25;;;;;;;9.25;76.97;101370.22;2144340;82;33055;-61
2022/10/20 08:35:27;;;;;;;22.15;12.65;;;;;;;9.38;76.77;101375.64;2144501;82;30138;-61
2022/10/20 08:38:29;;;;;;;21.95;12.30;;;;;;;9.48;76.91;101376.75;2119769;84;27746;-62
2022/10/20 08:41:35;;;;;;;17.62;10.32;;;;;;;9.57;76.90;101375.14;2119221;83;29511;-62
2022/10/20 08:44:38;;;;;;;18.42;10.30;;;;;;;9.63;76.18;101377.66;2119709;84;31030;-61
2022/10/20 08:47:40;;;;;;;22.62;11.63;;;;;;;9.72;76.38;101382.73;2119744;83;34020;-61
2022/10/20 08:50:45;;;;;;;26.30;11.53;;;;;;;9.78;76.21;101379.00;2142951;82;29415;-61
2022/10/20 08:53:47;;;;;;;;;;;;;;;9.87;75.68;101372.50;2159822;82;27700;-63
2022/10/20 08:56:49;;;;;;;23.18;11.33;;;;;;;9.98;75.72;101373.08;2184742;81;29245;-61
2022/10/20 08:59:53;;;;;;;17.42;10.53;;;;;;;10.05;75.35;101360.38;2184539;81;31162;-61
2022/10/20 09:02:55;;;;;;;17.63;8.17;;;;;;;10.18;75.32;101362.20;2184850;81;33352;-61
2022/10/20 09:06:10;;;;;;;17.50;9.35;;;;;;;10.32;74.89;101355.98;2184553;81;29737;-61
2022/10/20 09:09:18;;;;;;;17.10;7.90;;;;;;;10.41;73.78;101356.19;2184677;81;27648;-59
2022/10/20 09:12:22;;;;;;;14.03;9.05;;;;;;;10.52;74.42;101353.13;2184509;81;28500;-60
2022/10/20 09:15:25;;;;;;;17.87;8.35;;;;;;;10.59;73.77;101353.84;2184604;81;31833;-60
2022/10/20 09:18:27;;;;;;;16.27;8.08;;;;;;;10.70;73.36;101352.11;2184407;80;33356;-62
2022/10/20 09:21:31;;;;;;;19.07;10.08;;;;;;;10.74;73.16;101343.95;2158430;81;30482;-60
2022/10/20 09:24:35;;;;;;;8.70;5.60;;;;;;;10.75;72.37;101349.72;2158015;81;27804;-63
2022/10/20 09:27:38;;;;;;;12.18;7.15;;;;;;;10.82;71.66;101353.52;2159502;82;28646;-58
2022/10/20 09:30:40;;;;;;;16.25;6.83;;;;;;;10.82;71.39;101350.84;2159489;82;32204;-63
2022/10/20 09:33:42;;;;;;;13.18;7.72;;;;;;;10.82;71.42;101350.84;2159299;81;33504;-59
2022/10/20 09:36:43;;;;;;;12.23;7.60;;;;;;;10.85;71.70;101348.92;2159742;82;29708;-66
2022/10/20 09:39:50;;;;;;;16.07;7.83;;;;;;;10.89;70.54;101345.21;2159358;82;27583;-64
2022/10/20 09:42:59;;;;;;;11.53;7.25;;;;;;;10.89;71.07;101342.53;2159734;82;30049;-65
2022/10/20 09:46:07;;;;;;;9.83;5.85;;;;;;;10.96;70.57;101333.81;2158766;81;31575;-68
2022/10/20 09:49:31;;;;;;;14.38;9.23;;;;;;;10.98;70.02;101333.78;2159311;81;32954;-65
2022/10/20 09:52:46;;;;;;;15.83;8.10;;;;;;;11.04;70.60;101324.16;2153160;81;29750;-64
2022/10/20 09:55:47;;;;;;;13.72;6.95;;;;;;;11.14;70.48;101329.63;2119888;82;27639;-69
2022/10/20 09:58:48;;;;;;;13.15;7.17;;;;;;;11.21;69.79;101322.23;2159615;82;28687;-66
2022/10/20 10:01:58;;;;;;;10.40;4.85;;;;;;;11.24;68.94;101323.47;2122380;82;31413;-72
2022/10/20 10:05:19;;;;;;;12.30;5.12;;;;;;;11.27;68.39;101312.61;2159132;82;33755;-74
2022/10/20 10:08:24;;;;;;;9.20;3.95;;;;;;;11.27;68.05;101313.95;2159074;81;29338;-70
2022/10/20 10:11:34;;;;;;;;;;;;;;;11.25;68.03;101315.36;2162267;82;27675;-59
2022/10/20 10:14:50;;;;;;;5.33;3.45;;;;;;;11.27;67.50;101311.75;2156710;81;28675;-67
2022/10/20 10:17:52;;;;;;;;;;;;;;;11.22;65.83;101311.92;2162079;81;31432;-61
2022/10/20 10:21:10;;;;;;;5.30;3.50;;;;;;;11.17;66.08;101312.54;2159185;81;34143;-71
2022/10/20 10:24:44;;;;;;;6.62;3.75;;;;;;;11.15;66.40;101303.22;2151766;81;29380;-67
2022/10/20 10:28:07;;;;;;;6.53;2.87;;;;;;;11.16;65.78;101299.61;2159493;81;27637;-73
2022/10/20 10:31:24;;;;;;;5.45;3.12;;;;;;;11.20;66.57;101295.86;2142081;82;29461;-77
2022/10/20 10:34:33;;;;;;;9.03;3.87;;;;;;;11.23;64.99;101294.90;2170446;80;31396;-71
2022/10/20 10:37:37;;;;;;;8.05;4.30;;;;;;;11.18;65.01;101288.33;2188747;80;33339;-74
2022/10/20 10:41:09;;;;;;;9.70;4.03;;;;;;;11.20;65.12;101283.80;2153368;81;30631;-77
2022/10/20 10:44:56;;;;;;;10.32;3.90;;;;;;;11.22;65.69;101275.23;2139716;82;27685;-76
2022/10/20 10:48:41;;;;;;;7.67;4.05;;;;;;;11.29;65.47;101279.04;2159499;81;28685;-61
2022/10/20 10:52:24;;;;;;;7.60;4.03;;;;;;;11.32;64.77;101270.41;2186093;79;31113;-76
2022/10/20 10:55:40;;;;;;;8.68;4.80;;;;;;;11.35;64.35;101275.66;2181301;80;33121;-74
2022/10/20 10:58:58;;;;;;;5.37;3.90;;;;;;;11.34;64.38;101263.63;2196045;79;29202;-70
2022/10/20 11:02:28;;;;;;;8.38;4.70;;;;;;;11.39;64.61;101260.31;2140586;82;27713;-65
2022/10/20 11:05:41;;;;;;;11.12;4.30;;;;;;;11.38;64.42;101246.05;2155177;81;29066;-74
2022/10/20 11:09:12;;;;;;;7.62;3.98;;;;;;;11.42;62.93;101245.45;2102681;82;31528;-73
2022/10/20 11:12:22;;;;;;;7.35;4.22;;;;;;;11.45;63.01;101234.61;2077126;84;33339;-70
2022/10/20 11:15:53;;;;;;;7.25;3.17;;;;;;;11.50;62.42;101237.96;2071433;84;30456;-76
2022/10/20 11:19:44;;;;;;;14.28;7.37;;;;;;;11.57;66.14;101231.92;1996253;88;28381;-66
2022/10/20 11:23:32;;;;;;;7.08;4.08;;;;;;;11.60;63.54;101217.50;2014922;87;29261;-68
2022/10/20 11:26:52;;;;;;;7.60;3.50;;;;;;;11.61;62.87;101210.72;1977294;88;31435;-69
2022/10/20 11:30:06;;;;;;;11.20;4.75;;;;;;;11.59;61.84;101209.03;2012412;87;32978;-66
2022/10/20 11:33:15;;;;;;;9.60;5.03;;;;;;;11.58;62.96;101206.84;2010806;87;30678;-66
2022/10/20 11:36:18;;;;;;;8.57;5.00;;;;;;;11.61;62.01;101201.32;2011794;87;27822;-64
2022/10/20 11:39:40;;;;;;;8.05;3.83;;;;;;;11.63;62.55;101193.23;2001942;87;28799;-64
2022/10/20 11:43:11;;;;;;;8.08;4.75;;;;;;;11.63;61.10;101194.09;2008261;87;31547;-64
2022/10/20 11:46:18;;;;;;;8.73;3.42;;;;;;;11.69;62.10;101182.23;2025196;87;33811;-65
2022/10/20 11:49:20;;;;;;;13.40;4.92;;;;;;;11.70;60.73;101179.50;2052270;86;30484;-64
2022/10/20 11:52:59;;;;;;;5.30;3.37;;;;;;;11.69;61.04;101175.52;2061550;86;28099;-64
2022/10/20 11:56:41;;;;;;;6.55;3.08;;;;;;;11.70;60.71;101165.19;2145564;81;29098;-64
2022/10/20 12:00:27;;;;;;;6.80;3.20;;;;;;;11.70;58.88;101162.05;2146330;82;31449;-64
2022/10/20 12:04:00;;;;;;;6.25;3.40;;;;;;;11.67;59.29;101148.75;2073431;84;34366;-63
2022/10/20 12:07:36;;;;;;;5.58;3.55;;;;;;;11.69;59.06;101151.36;2080003;84;30496;-65
2022/10/20 12:10:59;;;;;;;;;;;;;;;11.72;59.67;101137.82;2079833;84;27753;-65
2022/10/20 12:14:09;;;;;;;6.17;4.08;;;;;;;11.75;59.56;101132.81;2079034;84;28699;-66
2022/10/20 12:17:31;;;;;;;9.58;4.35;;;;;;;11.78;59.32;101129.98;2017369;86;32243;-61
2022/10/20 12:20:48;;;;;;;5.60;3.77;;;;;;;11.83;59.63;101129.33;2072257;84;33005;-67
2022/10/20 12:23:53;;;;;;;6.33;3.65;;;;;;;11.85;57.68;101132.34;2070714;84;30332;-65
2022/10/20 12:27:12;;;;;;;6.70;3.62;;;;;;;11.86;59.09;101129.20;2046539;85;27725;-65
2022/10/20 12:30:40;;;;;;;12.35;6.08;;;;;;;11.90;58.00;101127.26;2045898;85;30077;-61
2022/10/20 12:33:59;;;;;;;16.02;4.83;;;;;;;11.92;58.70;101118.19;2046418;85;31472;-61
2022/10/20 12:37:34;;;;;;;8.10;5.28;;;;;;;11.95;59.03;101109.16;2046294;85;34275;-65
2022/10/20 12:40:57;;;;;;;9.03;4.70;;;;;;;11.98;58.72;101106.34;2101004;83;29967;-69
2022/10/20 12:44:04;;;;;;;9.73;4.05;;;;;;;12.00;58.49;101108.50;2131278;83;27642;-64
2022/10/20 12:47:07;;;;;;;11.63;4.28;;;;;;;12.00;58.33;101094.62;2130869;83;29119;-64
2022/10/20 12:50:45;;;;;;;11.20;4.03;;;;;;;12.00;58.74;101086.56;2128059;83;31882;-66
2022/10/20 12:54:01;;;;;;;7.10;3.87;;;;;;;12.03;57.47;101088.23;2092107;84;33415;-63
2022/10/20 12:57:25;;;;;;;15.60;4.85;;;;;;;12.04;58.05;101089.12;2171533;81;29727;-64
2022/10/20 13:00:32;;;;;;;14.85;9.23;;;;;;;12.05;56.82;101086.84;2177004;81;27678;-64
2022/10/20 13:03:51;;;;;;;7.25;4.83;;;;;;;12.04;57.47;101075.20;2168090;81;28678;-60
2022/10/20 13:06:53;;;;;;;11.78;3.80;;;;;;;12.05;57.07;101070.23;2174236;81;31005;-64
2022/10/20 13:09:55;;;;;;;10.90;3.72;;;;;;;12.06;57.46;101069.79;2142190;81;33382;-61
2022/10/20 13:13:08;;;;;;;7.53;3.60;;;;;;;12.06;57.32;101069.30;2146285;82;30553;-65
2022/10/20 13:16:16;;;;;;;10.98;4.05;;;;;;;12.09;56.57;101075.89;2104971;82;27767;-61
2022/10/20 13:19:25;;;;;;;7.85;4.00;;;;;;;12.08;55.80;101064.73;2178761;81;28625;-64
2022/10/20 13:22:37;;;;;;;9.65;3.95;;;;;;;12.06;56.73;101065.27;2150496;81;31022;-62
2022/10/20 13:25:46;;;;;;;7.92;4.83;;;;;;;12.05;56.22;101069.38;2111122;84;33012;-63
2022/10/20 13:28:50;;;;;;;7.30;3.77;;;;;;;12.00;55.78;101065.53;2173841;80;29384;-65
2022/10/20 13:32:19;;;;;;;8.25;3.87;;;;;;;11.99;54.52;101058.44;2147719;82;27712;-63
2022/10/20 13:35:37;;;;;;;8.33;3.42;;;;;;;11.97;54.66;101060.28;2139677;82;29890;-64
2022/10/20 13:39:08;;;;;;;8.78;4.00;;;;;;;11.94;54.88;101054.55;2148371;82;30920;-65
2022/10/20 13:42:27;;;;;;;8.98;5.10;;;;;;;11.94;54.92;101052.36;2125061;82;33401;-64
2022/10/20 13:45:50;;;;;;;11.25;6.90;;;;;;;11.93;55.51;101051.47;2149979;81;30512;-62
2022/10/20 13:49:29;;;;;;;7.87;4.22;;;;;;;11.92;55.63;101045.69;2148951;82;28377;-64
2022/10/20 13:52:34;;;;;;;8.28;3.67;;;;;;;11.91;54.17;101045.31;2141297;81;28654;-64
2022/10/20 13:55:53;;;;;;;;;;;;;;;11.93;55.21;101035.84;2097126;84;31969;-65
2022/10/20 13:59:19;;;;;;;5.72;3.33;;;;;;;11.92;54.74;101032.75;2160842;80;33282;-62
2022/10/20 14:02:31;;;;;;;10.00;3.30;;;;;;;11.90;53.97;101034.63;2163707;81;29674;-63
2022/10/20 14:05:38;;;;;;;8.03;4.35;;;;;;;11.86;53.80;101029.38;2176859;81;27589;-65
2022/10/20 14:08:43;;;;;;;8.20;3.98;;;;;;;11.86;53.93;101027.19;2169284;81;29857;-65
2022/10/20 14:11:47;;;;;;;;;;;;;;;11.84;54.21;101026.38;2149947;82;31445;-65
2022/10/20 14:14:49;;;;;;;12.18;4.20;;;;;;;11.82;53.58;101018.84;2142060;82;32664;-62
2022/10/20 14:17:57;;;;;;;6.67;3.70;;;;;;;11.77;53.68;101023.08;2141989;81;30186;-62
2022/10/20 14:21:07;;;;;;;5.78;3.58;;;;;;;11.76;53.94;101022.67;2147666;82;27715;-64
2022/10/20 14:24:32;;;;;;;10.63;4.05;;;;;;;11.74;54.15;101017.84;2144218;82;28693;-62
2022/10/20 14:27:35;;;;;;;7.53;4.45;;;;;;;11.72;54.24;101017.03;2144358;82;31700;-63
2022/10/20 14:30:37;;;;;;;16.00;5.42;;;;;;;11.68;54.80;101001.53;2139103;82;33366;-62